createdAt,value
2023-05-19T00:00:28.584Z,1.67
2023-05-19T00:04:30.902Z,2.35
2023-05-19T00:08:34.252Z,1.75
2023-05-19T00:12:37.345Z,1.50
2023-05-19T00:16:39.505Z,1.50
2023-05-19T00:20:41.354Z,1.73
2023-05-19T00:24:42.879Z,1.60
2023-05-19T00:28:44.348Z,1.50
2023-05-19T00:32:45.856Z,1.48
2023-05-19T00:36:47.375Z,2.15
2023-05-19T00:40:49.086Z,1.42
2023-05-19T00:44:50.942Z,1.83
2023-05-19T00:48:52.440Z,1.80
2023-05-19T00:52:57.148Z,1.92
2023-05-19T00:56:59.788Z,1.65
2023-05-19T01:01:05.203Z,1.40
2023-05-19T01:05:07.248Z,1.73
2023-05-19T01:09:09.002Z,1.70
2023-05-19T01:13:11.095Z,1.60
2023-05-19T01:17:35.599Z,1.42
2023-05-19T01:22:22.730Z,1.30
2023-05-19T01:26:55.206Z,1.50
2023-05-19T01:30:59.722Z,1.40
2023-05-19T01:35:03.453Z,1.85
2023-05-19T01:39:05.549Z,1.70
2023-05-19T01:43:10.289Z,1.65
2023-05-19T01:47:12.279Z,1.88
2023-05-19T01:51:14.226Z,1.85
2023-05-19T01:55:16.001Z,1.75
2023-05-19T01:59:43.120Z,1.77
2023-05-19T02:04:18.525Z,1.60
2023-05-19T02:08:43.352Z,1.77
2023-05-19T02:12:46.364Z,1.77
2023-05-19T02:16:48.901Z,1.50
2023-05-19T02:20:50.434Z,1.40
2023-05-19T02:24:51.993Z,1.65
2023-05-19T02:28:53.484Z,1.83
2023-05-19T02:32:55.603Z,1.98
2023-05-19T02:36:57.645Z,1.77
2023-05-19T02:40:59.158Z,1.55
2023-05-19T02:45:00.775Z,1.70
2023-05-19T02:49:02.249Z,1.73
2023-05-19T02:53:04.318Z,1.20
2023-05-19T02:57:06.877Z,1.50
2023-05-19T03:01:08.769Z,1.40
2023-05-19T03:05:10.659Z,1.83
2023-05-19T03:09:15.198Z,1.27
2023-05-19T03:13:17.086Z,1.60
2023-05-19T03:17:18.817Z,1.80
2023-05-19T03:21:20.462Z,1.40
2023-05-19T03:25:22.392Z,1.17
2023-05-19T03:29:23.909Z,2.05
2023-05-19T03:33:25.485Z,1.63
2023-05-19T03:37:26.992Z,1.73
2023-05-19T03:41:28.457Z,1.75
2023-05-19T03:45:30.090Z,1.73
2023-05-19T03:49:31.572Z,2.08
2023-05-19T03:53:33.091Z,1.45
2023-05-19T03:57:34.597Z,1.88
2023-05-19T04:01:36.563Z,1.38
2023-05-19T04:05:38.072Z,1.48
2023-05-19T04:09:39.918Z,1.40
2023-05-19T04:13:41.397Z,1.58
2023-05-19T04:17:43.151Z,1.40
2023-05-19T04:21:46.137Z,1.60
2023-05-19T04:25:48.749Z,1.80
2023-05-19T04:29:50.312Z,1.70
2023-05-19T04:33:53.682Z,1.70
2023-05-19T04:37:55.569Z,1.42
2023-05-19T04:41:57.111Z,2.03
2023-05-19T04:45:58.606Z,1.98
2023-05-19T04:50:00.771Z,1.67
2023-05-19T04:54:02.373Z,2.17
2023-05-19T04:58:04.351Z,2.13
2023-05-19T05:02:06.276Z,2.10
2023-05-19T05:06:08.841Z,2.20
2023-05-19T05:10:10.782Z,1.80
2023-05-19T05:14:12.587Z,2.03
2023-05-19T05:18:15.243Z,2.05
2023-05-19T05:22:17.044Z,2.10
2023-05-19T05:26:20.000Z,1.70
2023-05-19T05:30:21.523Z,2.15
2023-05-19T05:34:23.081Z,2.25
2023-05-19T05:38:24.534Z,2.58
2023-05-19T05:42:28.228Z,2.28
2023-05-19T05:46:32.606Z,2.40
2023-05-19T05:50:34.529Z,2.15
2023-05-19T05:54:36.365Z,1.98
2023-05-19T05:58:40.710Z,2.60
2023-05-19T06:02:46.494Z,2.08
2023-05-19T06:06:48.119Z,2.30
2023-05-19T06:10:49.621Z,2.55
2023-05-19T06:14:52.008Z,2.40
2023-05-19T06:18:53.620Z,2.50
2023-05-19T06:22:55.703Z,2.15
2023-05-19T06:26:57.172Z,2.60
2023-05-19T06:30:58.717Z,2.95
2023-05-19T06:35:00.513Z,2.60
2023-05-19T06:39:02.781Z,3.30
2023-05-19T06:43:04.885Z,2.50
2023-05-19T06:47:06.584Z,2.17
2023-05-19T06:51:10.191Z,2.20
2023-05-19T06:55:11.707Z,2.33
2023-05-19T06:59:13.460Z,2.28
2023-05-19T07:03:15.008Z,2.80
2023-05-19T07:07:16.647Z,2.80
2023-05-19T07:11:25.019Z,2.17
2023-05-19T07:15:26.487Z,2.20
2023-05-19T07:19:36.776Z,2.38
2023-05-19T07:23:38.338Z,2.40
2023-05-19T07:27:39.787Z,2.42
2023-05-19T07:31:41.334Z,2.15
2023-05-19T07:35:44.430Z,2.15
2023-05-19T07:39:45.955Z,3.03
2023-05-19T07:43:49.711Z,2.20
2023-05-19T07:47:51.462Z,2.42
2023-05-19T07:51:53.665Z,2.13
2023-05-19T07:55:56.450Z,2.55
2023-05-19T07:59:59.355Z,2.30
2023-05-19T08:04:03.300Z,2.45
2023-05-19T08:08:05.134Z,2.17
2023-05-19T08:12:06.678Z,2.00
2023-05-19T08:16:08.235Z,2.00
2023-05-19T08:20:10.367Z,2.80
2023-05-19T08:24:12.007Z,2.30
2023-05-19T08:28:13.770Z,2.20
2023-05-19T08:32:15.510Z,2.20
2023-05-19T08:36:17.193Z,1.80
2023-05-19T08:40:19.058Z,2.30
2023-05-19T08:44:20.753Z,2.20
2023-05-19T08:48:22.662Z,2.20
2023-05-19T08:52:49.491Z,1.80
2023-05-19T08:56:52.749Z,2.13
2023-05-19T09:00:56.436Z,1.70
2023-05-19T09:04:58.500Z,1.48
2023-05-19T09:09:00.173Z,1.60
2023-05-19T09:13:01.665Z,1.70
2023-05-19T09:17:03.255Z,1.35
2023-05-19T09:21:07.154Z,1.30
2023-05-19T09:25:24.432Z,1.63
2023-05-19T09:29:26.085Z,1.60
2023-05-19T09:33:28.576Z,2.03
2023-05-19T09:37:32.113Z,1.58
2023-05-19T09:41:33.588Z,1.23
2023-05-19T09:45:35.153Z,1.20
2023-05-19T09:49:36.726Z,1.42
2023-05-19T09:53:38.968Z,1.45
2023-05-19T09:57:41.405Z,1.75
2023-05-19T10:01:46.426Z,1.17
2023-05-19T10:05:48.810Z,1.10
2023-05-19T10:09:51.365Z,1.17
2023-05-19T10:13:52.841Z,1.13
2023-05-19T10:17:55.627Z,1.35
2023-05-19T10:21:57.409Z,1.30
2023-05-19T10:26:01.559Z,1.25
2023-05-19T10:30:12.460Z,1.30
2023-05-19T10:35:01.281Z,1.00
2023-05-19T10:39:07.678Z,1.38
2023-05-19T10:44:07.657Z,1.00
2023-05-19T10:48:15.109Z,1.48
2023-05-19T10:52:26.138Z,1.30
2023-05-19T10:56:34.708Z,1.00
2023-05-19T11:00:39.419Z,1.47
2023-05-19T11:04:54.016Z,1.25
2023-05-19T11:09:10.387Z,0.93
2023-05-19T11:13:19.928Z,1.30
2023-05-19T11:17:22.360Z,1.27
2023-05-19T11:21:23.837Z,1.05
2023-05-19T11:25:41.809Z,1.23
2023-05-19T11:29:43.608Z,1.15
2023-05-19T11:33:45.682Z,1.42
2023-05-19T11:37:49.067Z,1.90
2023-05-19T11:41:51.609Z,1.60
2023-05-19T11:45:56.191Z,1.45
2023-05-19T11:49:57.782Z,1.70
2023-05-19T11:53:59.777Z,1.30
2023-05-19T11:58:04.642Z,1.23
2023-05-19T12:02:13.876Z,1.10
2023-05-19T12:06:17.412Z,1.27
2023-05-19T12:10:23.368Z,1.35
2023-05-19T12:14:26.868Z,1.52
2023-05-19T12:18:33.168Z,3.28
2023-05-19T12:22:35.150Z,2.65
2023-05-19T12:26:37.371Z,2.08
2023-05-19T12:30:39.264Z,1.40
2023-05-19T12:34:42.006Z,1.40
2023-05-19T12:38:44.308Z,1.27
2023-05-19T12:42:46.252Z,1.63
2023-05-19T12:46:52.056Z,1.50
2023-05-19T12:50:56.696Z,1.20
2023-05-19T12:55:10.787Z,1.30
2023-05-19T12:59:30.607Z,1.27
2023-05-19T13:03:45.952Z,1.60
2023-05-19T13:07:54.935Z,1.98
2023-05-19T13:11:56.488Z,1.45
2023-05-19T13:15:58.180Z,1.27
2023-05-19T13:19:59.854Z,1.30
2023-05-19T13:24:01.374Z,1.40
2023-05-19T13:28:05.832Z,1.35
2023-05-19T13:32:08.461Z,1.65
2023-05-19T13:36:09.954Z,1.55
2023-05-19T13:40:11.949Z,1.35
2023-05-19T13:44:13.464Z,1.63
2023-05-19T13:48:15.015Z,1.60
2023-05-19T13:52:16.726Z,1.30
2023-05-19T13:56:18.255Z,1.60
2023-05-19T14:00:19.966Z,1.52
2023-05-19T14:04:21.522Z,1.48
2023-05-19T14:08:23.896Z,0.93
2023-05-19T14:12:35.355Z,1.23
2023-05-19T14:16:41.687Z,1.45
2023-05-19T14:20:43.221Z,1.58
2023-05-19T14:24:44.716Z,1.67
2023-05-19T14:28:46.158Z,1.50
2023-05-19T14:32:47.689Z,1.58
2023-05-19T14:36:49.487Z,1.40
2023-05-19T14:40:51.216Z,1.60
2023-05-19T14:44:52.737Z,1.48
2023-05-19T14:48:54.348Z,2.13
2023-05-19T14:52:56.883Z,1.40
2023-05-19T14:56:58.512Z,1.58
2023-05-19T15:01:00.245Z,1.50
2023-05-19T15:05:02.266Z,1.83
2023-05-19T15:09:03.790Z,1.38
2023-05-19T15:13:05.312Z,1.25
2023-05-19T15:17:06.861Z,1.20
2023-05-19T15:21:08.459Z,1.65
2023-05-19T15:25:10.318Z,1.55
2023-05-19T15:29:11.829Z,1.92
2023-05-19T15:33:13.392Z,1.23
2023-05-19T15:37:15.315Z,1.58
2023-05-19T15:41:16.886Z,1.35
2023-05-19T15:45:18.547Z,1.50
2023-05-19T15:49:20.039Z,1.45
2023-05-19T15:53:21.765Z,2.13
2023-05-19T15:57:23.302Z,8.80
2023-05-19T16:01:26.281Z,1.90
2023-05-19T16:05:28.088Z,1.60
2023-05-19T16:09:29.854Z,1.88
2023-05-19T16:13:33.446Z,2.28
2023-05-19T16:17:35.297Z,1.58
2023-05-19T16:21:36.840Z,1.52
2023-05-19T16:25:38.397Z,1.10
2023-05-19T16:29:40.021Z,2.15
2023-05-19T16:33:41.592Z,1.77
2023-05-19T16:37:43.079Z,1.60
2023-05-19T16:41:44.609Z,1.50
2023-05-19T16:45:46.345Z,2.00
2023-05-19T16:49:47.910Z,2.72
2023-05-19T16:53:49.395Z,2.63
2023-05-19T16:57:50.980Z,1.70
2023-05-19T17:01:52.585Z,1.60
2023-05-19T17:05:54.114Z,2.25
2023-05-19T17:09:56.051Z,2.10
2023-05-19T17:13:57.724Z,1.85
2023-05-19T17:17:59.360Z,1.50
2023-05-19T17:22:01.061Z,1.58
2023-05-19T17:26:02.567Z,2.20
2023-05-19T17:30:04.529Z,1.80
2023-05-19T17:34:06.161Z,1.70
2023-05-19T17:38:07.734Z,1.90
2023-05-19T17:42:09.233Z,1.83
2023-05-19T17:46:11.556Z,2.70
2023-05-19T17:50:13.213Z,2.03
2023-05-19T17:54:14.948Z,2.97
2023-05-19T17:58:17.633Z,1.95
2023-05-19T18:02:19.371Z,1.70
2023-05-19T18:06:21.180Z,2.38
2023-05-19T18:10:25.703Z,1.90
2023-05-19T18:14:27.208Z,2.03
2023-05-19T18:18:28.657Z,1.85
2023-05-19T18:22:30.290Z,2.30
2023-05-19T18:26:33.082Z,3.70
2023-05-19T18:30:35.418Z,2.00
2023-05-19T18:34:37.303Z,1.95
2023-05-19T18:38:39.521Z,1.98
2023-05-19T18:42:41.094Z,2.20
2023-05-19T18:46:42.642Z,1.80
2023-05-19T18:50:44.619Z,1.80
2023-05-19T18:54:47.316Z,1.75
2023-05-19T18:58:48.818Z,1.88
2023-05-19T19:02:50.340Z,2.28
2023-05-19T19:06:52.354Z,2.53
2023-05-19T19:10:59.077Z,2.58
2023-05-19T19:15:00.819Z,2.45
2023-05-19T19:19:02.475Z,1.83
2023-05-19T19:23:06.425Z,1.70
2023-05-19T19:27:08.022Z,2.03
2023-05-19T19:31:09.538Z,2.95
2023-05-19T19:35:11.222Z,2.30
2023-05-19T19:39:12.731Z,3.75
2023-05-19T19:43:14.219Z,3.45
2023-05-19T19:47:16.028Z,3.53
2023-05-19T19:51:17.574Z,4.93
2023-05-19T19:55:19.081Z,2.40
2023-05-19T19:59:20.839Z,2.22
2023-05-19T20:03:22.376Z,2.80
2023-05-19T20:07:24.025Z,2.17
2023-05-19T20:11:26.700Z,3.00
2023-05-19T20:15:28.170Z,3.20
2023-05-19T20:19:29.845Z,3.22
2023-05-19T20:23:31.390Z,3.10
2023-05-19T20:27:32.833Z,3.05
2023-05-19T20:31:34.445Z,2.10
2023-05-19T20:35:35.982Z,2.60
2023-05-19T20:39:37.970Z,2.38
2023-05-19T20:43:39.473Z,2.92
2023-05-19T20:47:40.990Z,4.10
2023-05-19T20:51:42.488Z,3.13
2023-05-19T20:55:45.123Z,2.97
2023-05-19T20:59:46.740Z,3.85
2023-05-19T21:03:48.239Z,3.17
2023-05-19T21:07:49.692Z,4.53
2023-05-19T21:11:53.552Z,3.17
2023-05-19T21:15:56.341Z,4.75
2023-05-19T21:19:59.716Z,5.13
2023-05-19T21:24:01.231Z,7.93
2023-05-19T21:28:03.243Z,7.63
2023-05-19T21:32:05.171Z,7.80
2023-05-19T21:36:07.154Z,2.33
2023-05-19T21:40:09.777Z,2.45
2023-05-19T21:44:11.260Z,3.10
2023-05-19T21:48:13.165Z,2.88
2023-05-19T21:52:14.731Z,2.67
2023-05-19T21:56:19.201Z,2.30
2023-05-19T22:00:20.749Z,2.83
2023-05-19T22:04:22.704Z,2.47
2023-05-19T22:08:24.489Z,2.70
2023-05-19T22:12:25.962Z,2.25
2023-05-19T22:16:27.527Z,2.38
2023-05-19T22:20:29.171Z,2.47
2023-05-19T22:24:31.039Z,3.08
2023-05-19T22:28:32.625Z,3.13
2023-05-19T22:32:35.145Z,2.63
2023-05-19T22:36:36.739Z,2.35
2023-05-19T22:40:38.929Z,2.92
2023-05-19T22:44:40.515Z,2.83
2023-05-19T22:48:42.012Z,2.90
2023-05-19T22:52:43.478Z,2.60
2023-05-19T22:56:46.339Z,2.50
2023-05-19T23:00:48.083Z,2.90
2023-05-19T23:04:49.667Z,2.35
2023-05-19T23:09:09.097Z,2.85
2023-05-19T23:13:11.878Z,3.25
2023-05-19T23:17:13.530Z,3.00
2023-05-19T23:21:15.132Z,2.55
2023-05-19T23:25:16.640Z,3.35
2023-05-19T23:29:18.168Z,3.00
2023-05-19T23:33:19.853Z,3.20
2023-05-19T23:37:21.364Z,2.88
2023-05-19T23:41:22.847Z,2.80
2023-05-19T23:45:24.366Z,2.65
2023-05-19T23:49:25.906Z,2.88
2023-05-19T23:53:27.451Z,3.10
2023-05-19T23:57:28.937Z,2.85
